Time;durP1;ratioP1;P1;durP2;ratioP2;P2;SDS_P1;SDS_P2;PMS_P1;PMS_P2;Temp;Humidity;BMP_temperature;BMP_pressure;BME280_temperature;BME280_humidity;BME280_pressure;Samples;Min_cycle;Max_cycle;Signal;HPM_P1;HPM_P2
2024/01/02 00:01:05;;;;;;;11.98;2.80;;;;;;;5.99;100.00;100011.38;5071935;28;20055;-73
2024/01/02 00:03:31;;;;;;;16.80;2.67;;;;;;;6.01;100.00;100008.72;5070811;28;20127;-74
2024/01/02 00:05:56;;;;;;;10.35;2.75;;;;;;;5.99;100.00;100002.63;5057716;28;20020;-74
2024/01/02 00:08:21;;;;;;;10.38;2.70;;;;;;;6.01;100.00;99990.31;5087555;28;20063;-74
2024/01/02 00:10:47;;;;;;;10.75;2.78;;;;;;;6.01;100.00;99987.69;5070298;28;20529;-74
2024/01/02 00:13:12;;;;;;;12.35;2.78;;;;;;;6.02;100.00;99984.16;5072017;28;20488;-74
2024/01/02 00:15:38;;;;;;;11.38;3.45;;;;;;;6.03;100.00;99989.41;5070393;28;20048;-73
2024/01/02 00:18:04;;;;;;;17.25;3.13;;;;;;;6.05;100.00;99972.72;5071829;28;20040;-72
2024/01/02 00:20:29;;;;;;;11.38;2.55;;;;;;;6.05;100.00;99964.84;5070317;28;20484;-73
2024/01/02 00:22:55;;;;;;;12.82;2.67;;;;;;;6.06;100.00;99959.56;5086438;28;20068;-73
2024/01/02 00:25:20;;;;;;;7.47;2.20;;;;;;;6.08;100.00;99935.88;5070417;28;20042;-73
2024/01/02 00:27:46;;;;;;;15.00;2.65;;;;;;;6.09;100.00;99935.84;5071703;28;20036;-72
2024/01/02 00:30:12;;;;;;;17.65;2.92;;;;;;;6.09;100.00;99935.84;5070412;28;20052;-73
2024/01/02 00:32:38;;;;;;;6.05;1.80;;;;;;;6.14;100.00;99914.75;5087315;28;20064;-73
2024/01/02 00:35:04;;;;;;;11.38;2.75;;;;;;;6.11;100.00;99902.53;5086962;28;20454;-73
2024/01/02 00:37:29;;;;;;;8.00;2.00;;;;;;;6.13;100.00;99884.09;5050190;28;20069;-73
2024/01/02 00:39:55;;;;;;;11.00;2.30;;;;;;;6.14;100.00;99878.81;5053485;28;20033;-73
2024/01/02 00:42:20;;;;;;;12.27;2.00;;;;;;;6.18;100.00;99862.09;5071367;28;20205;-73
2024/01/02 00:44:46;;;;;;;11.05;3.17;;;;;;;6.17;100.00;99844.56;5071603;28;20545;-72
2024/01/02 00:47:12;;;;;;;7.22;2.40;;;;;;;6.17;100.00;99833.19;5068121;28;20130;-73
2024/01/02 00:49:38;;;;;;;10.43;3.08;;;;;;;6.16;100.00;99816.56;5053512;28;20049;-73
2024/01/02 00:52:04;;;;;;;8.75;2.05;;;;;;;6.19;100.00;99808.59;5049579;28;20029;-74
2024/01/02 00:54:29;;;;;;;4.85;1.63;;;;;;;6.21;100.00;99801.56;5083098;28;20083;-73
2024/01/02 00:56:55;;;;;;;10.73;2.20;;;;;;;6.22;100.00;99795.38;5065255;28;20049;-73
2024/01/02 00:59:20;;;;;;;7.75;1.70;;;;;;;6.23;100.00;99770.84;5070063;28;20086;-73
2024/01/02 01:01:46;;;;;;;8.48;1.88;;;;;;;6.22;100.00;99779.59;5070017;28;20043;-73
2024/01/02 01:04:12;;;;;;;9.65;1.70;;;;;;;6.24;100.00;99763.81;5070054;28;20136;-73
2024/01/02 01:06:37;;;;;;;5.72;1.40;;;;;;;6.29;100.00;99758.47;5071340;28;20037;-73
2024/01/02 01:09:03;;;;;;;5.25;1.50;;;;;;;6.30;100.00;99754.94;5086849;28;20372;-73
2024/01/02 01:11:28;;;;;;;8.18;1.77;;;;;;;6.29;100.00;99742.69;5071263;28;20430;-73
2024/01/02 01:13:54;;;;;;;6.38;1.75;;;;;;;6.32;100.00;99729.47;5070010;28;20436;-74
2024/01/02 01:16:19;;;;;;;5.53;1.75;;;;;;;6.34;100.00;99728.53;5049750;28;20128;-74
2024/01/02 01:18:45;;;;;;;3.28;1.20;;;;;;;6.37;100.00;99715.31;5060902;28;20479;-73
2024/01/02 01:21:11;;;;;;;3.88;1.50;;;;;;;6.35;100.00;99703.94;5086515;28;20048;-74
2024/01/02 01:23:36;;;;;;;4.10;1.20;;;;;;;6.36;100.00;99699.59;5071355;28;20037;-75
2024/01/02 01:26:02;;;;;;;5.28;1.38;;;;;;;6.34;100.00;99685.59;5049612;28;20152;-74
2024/01/02 01:28:27;;;;;;;7.50;1.60;;;;;;;6.35;100.00;99682.06;5069197;28;20029;-74
2024/01/02 01:30:53;;;;;;;6.72;1.83;;;;;;;6.34;100.00;99662.78;5049567;28;20037;-74
2024/01/02 01:33:19;;;;;;;5.80;1.60;;;;;;;6.35;100.00;99659.25;5066321;28;20060;-73
2024/01/02 01:35:45;;;;;;;6.43;1.70;;;;;;;6.38;100.00;99646.06;5063293;28;20072;-74
2024/01/02 01:38:10;;;;;;;6.55;1.55;;;;;;;6.37;100.00;99641.69;5073395;28;20058;-74
2024/01/02 01:40:35;;;;;;;4.00;1.17;;;;;;;6.38;100.00;99629.38;5074697;28;20467;-74
2024/01/02 01:43:01;;;;;;;7.60;1.83;;;;;;;6.37;100.00;99627.69;5073328;28;20036;-74
2024/01/02 01:45:26;;;;;;;2.70;1.15;;;;;;;6.41;100.00;99616.19;5073135;28;20047;-75
2024/01/02 01:47:52;;;;;;;4.43;1.13;;;;;;;6.40;100.00;99596.03;5084319;28;20056;-74
2024/01/02 01:50:18;;;;;;;4.93;1.38;;;;;;;6.39;100.00;99584.66;5073026;28;20491;-74
2024/01/02 01:52:45;;;;;;;2.00;0.85;;;;;;;6.39;100.00;99579.41;5072735;28;20037;-74
2024/01/02 01:55:11;;;;;;;4.30;1.20;;;;;;;6.43;100.00;99572.31;5072670;28;20036;-74
2024/01/02 01:57:39;;;;;;;3.78;1.20;;;;;;;6.44;100.00;99558.25;5072874;28;20049;-74
2024/01/02 02:00:05;;;;;;;4.20;1.63;;;;;;;6.42;100.00;99558.28;5089675;28;20043;-74
2024/01/02 02:02:32;;;;;;;3.90;0.90;;;;;;;6.46;100.00;99540.69;5073396;28;20419;-75
2024/01/02 02:04:59;;;;;;;1.25;1.02;;;;;;;6.47;100.00;99542.38;5074178;28;20067;-74
2024/01/02 02:07:26;;;;;;;2.78;0.90;;;;;;;6.45;100.00;99526.66;5074102;28;20483;-74
2024/01/02 02:09:51;;;;;;;1.42;0.88;;;;;;;6.45;100.00;99520.53;5089715;28;20127;-74
2024/01/02 02:12:17;;;;;;;7.32;1.20;;;;;;;6.47;100.00;99522.22;5089577;28;20028;-74
2024/01/02 02:14:43;;;;;;;1.80;1.05;;;;;;;6.49;100.00;99513.44;5074096;28;20452;-75
2024/01/02 02:17:16;;;;;;;1.98;0.90;;;;;;;6.50;100.00;99502.84;5072581;28;20043;-74
2024/01/02 02:19:42;;;;;;;1.15;0.90;;;;;;;6.52;100.00;99489.69;5072707;28;20040;-75
2024/01/02 02:22:08;;;;;;;2.40;0.80;;;;;;;6.53;100.00;99486.13;5072649;28;20043;-74
2024/01/02 02:24:34;;;;;;;1.63;1.10;;;;;;;6.53;100.00;99487.00;5072647;28;20567;-75
2024/01/02 02:27:01;;;;;;;1.63;0.80;;;;;;;6.52;100.00;99469.50;5073806;28;20071;-75
2024/01/02 02:29:26;;;;;;;3.05;0.98;;;;;;;6.50;100.00;99462.53;5072617;28;20044;-74
2024/01/02 02:31:52;;;;;;;2.72;0.98;;;;;;;6.52;100.00;99452.84;5073837;28;20037;-74
2024/01/02 02:34:17;;;;;;;1.55;0.98;;;;;;;6.53;100.00;99452.81;5072484;28;20123;-75
2024/01/02 02:36:44;;;;;;;1.20;0.70;;;;;;;6.55;100.00;99442.25;5072230;28;20020;-75
2024/01/02 02:39:09;;;;;;;3.00;0.90;;;;;;;6.56;100.00;99430.84;5052411;28;20611;-75
2024/01/02 02:41:35;;;;;;;1.70;0.60;;;;;;;6.55;100.00;99413.31;5082736;28;20124;-75
2024/01/02 02:44:01;;;;;;;2.95;1.02;;;;;;;6.57;100.00;99411.50;5072423;28;20414;-76
2024/01/02 02:46:26;;;;;;;1.95;0.70;;;;;;;6.57;100.00;99404.47;5088363;28;20033;-74
2024/01/02 02:48:52;;;;;;;2.38;0.98;;;;;;;6.58;100.00;99386.94;5061294;28;20387;-75
2024/01/02 02:51:18;;;;;;;0.75;0.43;;;;;;;6.59;100.00;99380.75;5072120;28;20461;-75
2024/01/02 02:53:43;;;;;;;5.22;0.90;;;;;;;6.58;100.00;99374.66;5071327;28;20060;-75
2024/01/02 02:56:14;;;;;;;2.70;0.70;;;;;;;6.60;100.00;99362.31;5073005;28;20490;-75
2024/01/02 02:58:40;;;;;;;;;;;;;;;6.64;100.00;99348.16;5054265;28;20053;-74
2024/01/02 03:01:05;;;;;;;2.05;0.60;;;;;;;6.65;100.00;99333.22;5073240;28;20397;-76
2024/01/02 03:03:31;;;;;;;0.68;0.50;;;;;;;6.64;100.00;99328.88;5088881;28;20472;-75
2024/01/02 03:05:56;;;;;;;1.48;0.60;;;;;;;6.67;100.00;99336.69;5073017;28;20040;-75
2024/01/02 03:08:22;;;;;;;1.75;0.63;;;;;;;6.68;100.00;99325.25;5073371;28;20067;-75
2024/01/02 03:10:50;;;;;;;0.70;0.52;;;;;;;6.65;100.00;99309.56;5054823;28;20399;-74
2024/01/02 03:13:15;;;;;;;0.82;0.60;;;;;;;6.66;100.00;99309.50;5072028;28;20333;-74
2024/01/02 03:15:41;;;;;;;0.70;0.45;;;;;;;6.64;100.00;99287.66;5071514;28;20055;-75
2024/01/02 03:18:06;;;;;;;0.70;0.60;;;;;;;6.66;100.00;99279.72;5071717;28;20036;-75
2024/01/02 03:20:32;;;;;;;0.52;0.50;;;;;;;6.71;100.00;99271.69;5071661;28;20340;-73
2024/01/02 03:22:57;;;;;;;2.10;0.57;;;;;;;6.72;100.00;99252.34;5072460;28;20882;-75
2024/01/02 03:25:23;;;;;;;0.60;0.60;;;;;;;6.73;100.00;99249.69;5072636;28;20435;-75
2024/01/02 03:27:48;;;;;;;0.93;0.60;;;;;;;6.72;100.00;99241.84;5071452;28;20048;-75
2024/01/02 03:30:14;;;;;;;2.58;0.57;;;;;;;6.74;100.00;99243.50;5024309;28;20028;-74
2024/01/02 03:32:39;;;;;;;0.73;0.52;;;;;;;6.74;100.00;99240.88;5071806;28;20048;-74
2024/01/02 03:35:05;;;;;;;0.65;0.43;;;;;;;6.79;100.00;99224.94;5071370;28;20135;-75
2024/01/02 03:37:31;;;;;;;0.60;0.60;;;;;;;6.79;100.00;99219.69;5072367;28;20140;-75
2024/01/02 03:39:56;;;;;;;1.25;0.50;;;;;;;6.81;100.00;99226.63;5071057;28;20039;-75
2024/01/02 03:42:22;;;;;;;0.75;0.47;;;;;;;6.81;100.00;99226.63;5072636;28;20398;-74
2024/01/02 03:44:47;;;;;;;0.82;0.45;;;;;;;6.82;100.00;99214.31;5072434;28;20044;-75
2024/01/02 03:47:13;;;;;;;0.63;0.40;;;;;;;6.81;100.00;99209.97;5083453;28;20059;-75
2024/01/02 03:49:38;;;;;;;4.05;0.50;;;;;;;6.88;100.00;99206.25;5070008;28;20111;-75
2024/01/02 03:52:04;;;;;;;1.65;0.55;;;;;;;6.88;100.00;99199.19;5053309;28;20033;-75
2024/01/02 03:54:29;;;;;;;0.40;0.40;;;;;;;6.93;100.00;99198.19;5070796;28;20056;-75
2024/01/02 03:56:55;;;;;;;0.40;0.40;;;;;;;6.93;100.00;99201.69;5071853;28;20058;-76
2024/01/02 03:59:20;;;;;;;1.80;0.80;;;;;;;6.99;100.00;99197.97;5071600;28;20036;-75
2024/01/02 04:01:46;;;;;;;0.45;0.45;;;;;;;6.95;100.00;99185.81;5071777;28;20058;-74
2024/01/02 04:04:11;;;;;;;0.50;0.50;;;;;;;6.96;100.00;99180.53;5072398;28;20040;-74
2024/01/02 04:06:37;;;;;;;1.55;0.60;;;;;;;7.01;100.00;99164.56;5070604;28;20037;-76
2024/01/02 04:09:02;;;;;;;0.45;0.45;;;;;;;7.04;100.00;99159.19;5054415;28;20067;-75
2024/01/02 04:11:28;;;;;;;0.60;0.60;;;;;;;7.06;100.00;99142.44;5071929;28;20036;-74
2024/01/02 04:13:53;;;;;;;1.08;0.52;;;;;;;7.16;100.00;99152.66;5070986;28;20036;-74
2024/01/02 04:16:19;;;;;;;0.45;0.45;;;;;;;7.17;100.00;99157.00;5050641;28;20067;-75
2024/01/02 04:18:45;;;;;;;0.65;0.60;;;;;;;7.20;100.00;99152.50;5069499;28;20029;-74
2024/01/02 04:21:10;;;;;;;0.60;0.50;;;;;;;7.28;100.00;99162.75;5071952;28;20364;-75
2024/01/02 04:23:36;;;;;;;0.52;0.52;;;;;;;7.33;100.00;99145.03;5087417;28;20041;-75
2024/01/02 04:26:01;;;;;;;0.40;0.40;;;;;;;7.38;100.00;99144.88;5070669;28;20039;-75
2024/01/02 04:28:26;;;;;;;0.45;0.45;;;;;;;7.40;100.00;99141.25;5072026;28;20115;-75
2024/01/02 04:30:52;;;;;;;0.47;0.40;;;;;;;7.42;100.00;99141.19;5070601;28;20040;-75
2024/01/02 04:33:17;;;;;;;1.27;0.75;;;;;;;7.45;100.00;99143.72;5070695;28;20075;-75
2024/01/02 04:35:43;;;;;;;0.63;0.50;;;;;;;7.47;100.00;99134.84;5072115;28;20040;-75
2024/01/02 04:38:08;;;;;;;0.40;0.40;;;;;;;7.58;100.00;99138.88;5050577;28;20484;-75
2024/01/02 04:40:34;;;;;;;0.40;0.40;;;;;;;7.62;100.00;99135.22;5067923;28;20450;-75
2024/01/02 04:42:59;;;;;;;0.45;0.45;;;;;;;7.70;100.00;99117.34;5070475;28;20479;-75
2024/01/02 04:45:25;;;;;;;0.65;0.65;;;;;;;7.73;100.00;99131.25;5072015;28;20368;-75
2024/01/02 04:47:50;;;;;;;0.40;0.40;;;;;;;7.72;100.00;99132.16;5049531;28;20082;-75
2024/01/02 04:50:16;;;;;;;0.35;0.35;;;;;;;7.73;100.00;99117.22;5050597;28;20484;-75
2024/01/02 04:52:41;;;;;;;0.47;0.47;;;;;;;7.79;100.00;99124.03;5051867;28;20105;-75
2024/01/02 04:55:07;;;;;;;0.50;0.50;;;;;;;7.93;100.00;99119.94;5038238;28;20494;-75
2024/01/02 04:57:33;;;;;;;0.65;0.45;;;;;;;7.90;100.00;99112.16;5068609;28;20136;-76
2024/01/02 04:59:58;;;;;;;0.40;0.40;;;;;;;7.98;100.00;99109.22;5053315;28;20055;-75
2024/01/02 05:02:24;;;;;;;0.45;0.40;;;;;;;8.02;100.00;99115.25;5071426;28;20486;-75
2024/01/02 05:04:51;;;;;;;0.30;0.30;;;;;;;8.16;100.00;99116.44;5071324;28;20075;-76
2024/01/02 05:07:16;;;;;;;0.55;0.40;;;;;;;8.25;100.00;99114.34;5059202;28;20033;-77
2024/01/02 05:09:42;;;;;;;0.50;0.50;;;;;;;8.24;100.00;99129.31;5054614;28;20395;-76
2024/01/02 05:12:07;;;;;;;0.40;0.40;;;;;;;8.29;100.00;99127.34;5075147;28;20047;-76
2024/01/02 05:14:33;;;;;;;0.75;0.43;;;;;;;8.37;100.00;99111.22;5073918;28;20108;-73
2024/01/02 05:16:58;;;;;;;0.63;0.63;;;;;;;8.34;100.00;99120.09;5075221;28;20039;-74
2024/01/02 05:19:24;;;;;;;0.88;0.77;;;;;;;8.45;100.00;99124.13;5073716;28;20032;-74
2024/01/02 05:21:51;;;;;;;0.40;0.40;;;;;;;8.45;100.00;99124.13;5066661;28;20088;-74
2024/01/02 05:24:16;;;;;;;1.33;0.50;;;;;;;8.44;100.00;99127.69;5073840;28;20064;-75
2024/01/02 05:26:42;;;;;;;0.47;0.47;;;;;;;8.56;100.00;99121.91;5056905;28;20083;-74
2024/01/02 05:29:07;;;;;;;0.93;0.77;;;;;;;8.51;100.00;99121.25;5074936;28;20036;-74
2024/01/02 05:31:33;;;;;;;0.85;0.80;;;;;;;8.63;100.00;99112.81;5073364;28;20033;-74
2024/01/02 05:33:58;;;;;;;1.40;0.70;;;;;;;8.66;100.00;99117.97;5073388;28;20111;-74
2024/01/02 05:36:24;;;;;;;0.90;0.90;;;;;;;8.88;100.00;99111.75;5056684;28;20101;-74
2024/01/02 05:38:49;;;;;;;0.73;0.60;;;;;;;8.85;100.00;99107.47;5071347;28;20102;-74
2024/01/02 05:41:15;;;;;;;0.98;0.90;;;;;;;8.90;100.00;99108.16;5073142;28;20040;-74
2024/01/02 05:43:40;;;;;;;1.05;1.02;;;;;;;8.93;100.00;99105.38;5066172;28;20033;-74
2024/01/02 05:46:06;;;;;;;1.30;1.20;;;;;;;8.95;100.00;99110.56;5060265;28;20075;-75
2024/01/02 05:48:31;;;;;;;2.95;1.20;;;;;;;9.01;100.00;99079.50;5070165;28;20472;-76
2024/01/02 05:50:57;;;;;;;0.85;0.85;;;;;;;9.12;100.00;99129.19;5074237;28;20422;-75
2024/01/02 05:53:22;;;;;;;1.60;1.50;;;;;;;9.07;100.00;99133.81;5073669;28;20459;-75
2024/01/02 05:55:48;;;;;;;1.15;1.05;;;;;;;9.20;100.00;99121.81;5038623;28;20459;-75
2024/01/02 05:58:13;;;;;;;1.45;1.33;;;;;;;9.26;100.00;99125.97;5061470;28;20057;-74
2024/01/02 06:00:39;;;;;;;2.38;1.30;;;;;;;9.32;100.00;99140.69;5056192;28;20040;-75
2024/01/02 06:03:04;;;;;;;1.98;1.60;;;;;;;9.31;100.00;99139.81;5039821;28;20063;-75
2024/01/02 06:05:30;;;;;;;2.00;1.77;;;;;;;9.32;100.00;99145.97;5072723;28;20048;-75
2024/01/02 06:07:55;;;;;;;2.00;1.83;;;;;;;9.37;100.00;99155.44;5049755;28;20021;-75
2024/01/02 06:10:21;;;;;;;2.13;1.95;;;;;;;9.36;100.00;99164.25;5072851;28;20044;-75
2024/01/02 06:12:47;;;;;;;2.10;1.90;;;;;;;9.44;100.00;99169.19;5074064;28;20037;-74
2024/01/02 06:15:14;;;;;;;2.47;2.28;;;;;;;9.43;100.00;99165.72;5072705;28;20037;-75
2024/01/02 06:17:39;;;;;;;1.75;1.65;;;;;;;9.46;100.00;99162.94;5062858;28;20107;-79
2024/01/02 06:20:06;;;;;;;2.33;2.00;;;;;;;9.46;100.00;99172.63;5071751;28;20500;-80
2024/01/02 06:22:31;;;;;;;2.72;2.53;;;;;;;9.48;100.00;99174.28;5063683;28;20037;-74
2024/01/02 06:24:57;;;;;;;3.00;2.63;;;;;;;9.48;100.00;99174.28;5037841;28;20372;-76
2024/01/02 06:27:22;;;;;;;7.32;2.70;;;;;;;9.46;100.00;99181.41;5072517;28;20110;-75
2024/01/02 06:29:48;;;;;;;4.70;3.25;;;;;;;9.52;100.00;99196.16;5072499;28;20391;-76
2024/01/02 06:32:13;;;;;;;3.78;3.22;;;;;;;9.57;100.00;99194.19;5055699;28;20044;-74
2024/01/02 06:34:39;;;;;;;4.05;3.63;;;;;;;9.57;100.00;99182.72;5072317;28;20033;-74
2024/01/02 06:37:05;;;;;;;4.05;3.65;;;;;;;9.61;100.00;99179.88;5073366;28;20037;-74
2024/01/02 06:39:31;;;;;;;5.15;3.70;;;;;;;9.68;100.00;99185.75;5072070;28;20391;-75
2024/01/02 06:41:56;;;;;;;5.57;4.70;;;;;;;9.67;100.00;99173.50;5073604;28;20039;-74
2024/01/02 06:44:22;;;;;;;5.10;4.28;;;;;;;9.79;100.00;99180.88;5055385;28;20115;-75
2024/01/02 06:46:47;;;;;;;4.70;4.18;;;;;;;9.75;100.00;99173.13;5073115;28;20036;-74
2024/01/02 06:49:13;;;;;;;4.15;3.75;;;;;;;9.86;100.00;99210.50;5054663;28;20033;-74
2024/01/02 06:51:38;;;;;;;6.30;4.68;;;;;;;9.89;100.00;99202.44;5051844;28;20029;-74
2024/01/02 06:54:04;;;;;;;7.15;4.85;;;;;;;9.85;100.00;99200.88;5044588;28;20040;-74
2024/01/02 06:56:29;;;;;;;8.50;4.85;;;;;;;9.90;100.00;99198.88;5072149;28;20028;-72
2024/01/02 06:58:55;;;;;;;8.10;4.70;;;;;;;9.92;100.00;99215.53;5059184;28;20088;-74
2024/01/02 07:01:21;;;;;;;11.50;5.57;;;;;;;9.92;100.00;99214.69;5034675;28;20040;-78
2024/01/02 07:03:47;;;;;;;10.07;5.47;;;;;;;9.94;100.00;99213.69;5051106;28;20441;-74
2024/01/02 07:06:12;;;;;;;6.85;5.25;;;;;;;9.96;100.00;99210.97;5068411;28;20037;-76
2024/01/02 07:08:38;;;;;;;8.88;5.18;;;;;;;9.93;100.00;99205.81;5063520;28;20029;-76
2024/01/02 07:11:03;;;;;;;9.05;5.45;;;;;;;9.98;100.00;99217.03;5035877;28;20705;-78
2024/01/02 07:13:29;;;;;;;8.00;5.40;;;;;;;10.01;100.00;99230.97;5021121;28;20060;-77
2024/01/02 07:15:56;;;;;;;12.73;6.50;;;;;;;10.05;100.00;99224.63;5063596;28;20219;-76
2024/01/02 07:18:21;;;;;;;10.88;6.30;;;;;;;10.08;100.00;99218.34;5069185;28;20103;-76
2024/01/02 07:20:47;;;;;;;9.23;6.22;;;;;;;10.08;100.00;99224.47;5050406;28;20117;-76
2024/01/02 07:23:12;;;;;;;9.18;6.47;;;;;;;10.12;100.00;99226.06;5068714;28;20388;-77
2024/01/02 07:25:38;;;;;;;11.98;6.15;;;;;;;10.14;100.00;99231.28;5070947;28;20052;-77
2024/01/02 07:28:03;;;;;;;12.88;6.75;;;;;;;10.06;100.00;99222.84;5070408;28;20036;-76
2024/01/02 07:30:29;;;;;;;12.65;6.60;;;;;;;10.21;100.00;99247.72;5070873;28;20070;-77
2024/01/02 07:32:55;;;;;;;12.20;6.57;;;;;;;10.16;100.00;99245.28;5070698;28;20055;-77
2024/01/02 07:35:20;;;;;;;15.15;7.03;;;;;;;10.17;100.00;99254.09;5054140;28;20036;-77
2024/01/02 07:37:48;;;;;;;13.10;6.43;;;;;;;10.18;100.00;99245.22;5070084;28;20345;-77
2024/01/02 07:40:14;;;;;;;12.00;5.93;;;;;;;10.30;100.00;99258.78;5070743;28;20040;-77
2024/01/02 07:42:40;;;;;;;14.73;5.95;;;;;;;10.24;100.00;99274.91;5069819;28;20079;-77
2024/01/02 07:45:07;;;;;;;13.50;6.68;;;;;;;10.26;100.00;99275.72;5071976;28;20041;-77
2024/01/02 07:47:32;;;;;;;15.73;6.60;;;;;;;10.26;100.00;99262.47;5069875;28;20032;-78
2024/01/02 07:49:58;;;;;;;14.23;6.63;;;;;;;10.26;100.00;99281.00;5070512;28;20422;-77
2024/01/02 07:52:23;;;;;;;14.20;6.00;;;;;;;10.33;100.00;99289.53;5035921;28;20048;-77
2024/01/02 07:54:49;;;;;;;12.88;7.20;;;;;;;10.28;100.00;99288.88;5074722;28;20127;-77
2024/01/02 07:57:14;;;;;;;16.75;7.80;;;;;;;10.28;100.00;99302.09;5070541;28;20094;-77
2024/01/02 07:59:40;;;;;;;14.52;7.53;;;;;;;10.35;100.00;99297.41;5070376;28;20049;-82
2024/01/02 08:02:05;;;;;;;18.33;8.25;;;;;;;10.31;100.00;99297.56;5053955;28;20040;-77
2024/01/02 08:04:31;;;;;;;13.10;7.32;;;;;;;10.31;100.00;99292.25;5071788;28;20167;-77
2024/01/02 08:07:01;;;;;;;16.42;6.85;;;;;;;10.29;100.00;99294.13;5071841;28;20024;-77
2024/01/02 08:09:27;;;;;;;12.40;7.05;;;;;;;10.28;100.00;99286.22;5053852;28;20553;-77
2024/01/02 08:11:53;;;;;;;13.13;6.78;;;;;;;10.31;100.00;99281.69;5071684;28;20024;-77
2024/01/02 08:14:18;;;;;;;15.55;7.38;;;;;;;10.29;100.00;99283.53;5054134;28;20036;-78
2024/01/02 08:16:44;;;;;;;12.93;6.20;;;;;;;10.32;100.00;99286.03;5071510;28;20115;-76
2024/01/02 08:19:09;;;;;;;11.82;6.07;;;;;;;10.34;100.00;99285.97;5087433;28;20041;-78
2024/01/02 08:21:34;;;;;;;12.23;5.63;;;;;;;10.32;100.00;99283.38;5071411;28;20045;-77
2024/01/02 08:24:00;;;;;;;12.77;4.50;;;;;;;10.31;100.00;99292.25;5053745;28;20047;-79
2024/01/02 08:26:26;;;;;;;15.23;5.88;;;;;;;10.28;100.00;99284.44;5071534;28;20032;-77
2024/01/02 08:28:51;;;;;;;13.25;4.75;;;;;;;10.35;100.00;99300.06;5071609;28;20028;-77
2024/01/02 08:31:17;;;;;;;11.57;5.10;;;;;;;10.33;100.00;99289.53;5053588;28;20040;-77
2024/01/02 08:33:43;;;;;;;13.48;5.20;;;;;;;10.33;100.00;99298.31;5050112;28;20044;-78
2024/01/02 08:36:11;;;;;;;9.98;5.10;;;;;;;10.36;100.00;99292.06;5060792;28;20040;-77
2024/01/02 08:38:37;;;;;;;16.63;5.50;;;;;;;10.35;100.00;99285.03;5070196;28;20056;-77
2024/01/02 08:41:03;;;;;;;9.35;4.95;;;;;;;10.39;100.00;99275.19;5070089;28;20051;-77
2024/01/02 08:43:29;;;;;;;7.90;4.35;;;;;;;10.37;100.00;99269.94;5070697;28;20032;-77
2024/01/02 08:45:55;;;;;;;10.63;4.50;;;;;;;10.43;100.00;99267.00;5042811;28;20095;-77
2024/01/02 08:48:21;;;;;;;13.20;4.68;;;;;;;10.42;100.00;99273.25;5076697;28;20048;-80
2024/01/02 08:50:46;;;;;;;14.43;4.60;;;;;;;10.45;100.00;99264.28;5059986;28;20497;-81
2024/01/02 08:53:12;;;;;;;15.60;5.32;;;;;;;10.48;100.00;99266.78;5059145;28;20032;-77
2024/01/02 08:55:41;;;;;;;11.88;4.28;;;;;;;10.49;100.00;99276.47;5077435;28;20032;-78
2024/01/02 08:58:07;;;;;;;9.85;4.40;;;;;;;10.51;100.00;99267.53;5076546;28;20404;-78
2024/01/02 09:00:33;;;;;;;10.20;4.93;;;;;;;10.52;100.00;99268.38;5077376;28;20136;-78
2024/01/02 09:03:00;;;;;;;8.40;4.47;;;;;;;10.51;100.00;99264.88;5076559;28;20040;-77
2024/01/02 09:05:26;;;;;;;10.90;4.53;;;;;;;10.59;100.00;99274.25;5093432;28;20036;-77
2024/01/02 09:07:52;;;;;;;13.90;4.82;;;;;;;10.60;100.00;99257.44;5077586;28;20379;-78
2024/01/02 09:10:18;;;;;;;12.70;4.15;;;;;;;10.61;100.00;99253.84;5077776;28;20025;-77
2024/01/02 09:12:43;;;;;;;11.57;5.07;;;;;;;10.58;100.00;99246.91;5077758;28;20046;-78
2024/01/02 09:15:10;;;;;;;12.23;5.18;;;;;;;10.58;100.00;99243.41;5076246;28;20062;-78
2024/01/02 09:17:35;;;;;;;10.25;4.25;;;;;;;10.58;100.00;99241.59;5076175;28;20051;-78
2024/01/02 09:20:03;;;;;;;11.68;4.32;;;;;;;10.60;100.00;99239.75;5077025;28;20037;-78
2024/01/02 09:22:28;;;;;;;7.53;3.55;;;;;;;10.57;100.00;99241.69;5077318;28;20044;-78
2024/01/02 09:24:55;;;;;;;7.78;3.22;;;;;;;10.69;100.00;99239.31;5058787;28;20094;-78
2024/01/02 09:27:23;;;;;;;7.70;3.30;;;;;;;10.58;100.00;99246.91;5076463;28;20039;-77
2024/01/02 09:29:48;;;;;;;6.85;3.42;;;;;;;10.60;100.00;99231.81;5077382;28;20111;-78
2024/01/02 09:32:16;;;;;;;4.65;2.78;;;;;;;10.65;100.00;99234.25;5076002;28;20124;-79
2024/01/02 09:34:42;;;;;;;4.60;2.80;;;;;;;10.61;100.00;99230.91;5060035;28;20028;-78
2024/01/02 09:37:07;;;;;;;3.78;2.50;;;;;;;10.68;100.00;99234.97;5059336;28;20064;-77
2024/01/02 09:39:33;;;;;;;4.75;2.80;;;;;;;10.64;100.00;99220.16;5076185;28;20113;-78
2024/01/02 09:42:28;;;;;;;10.57;6.05;;;;;;;10.69;100.00;99231.38;5074906;28;20036;-77
2024/01/02 09:45:08;;;;;;;2.40;1.80;;;;;;;10.67;100.00;99235.88;5073966;28;20140;-84
2024/01/02 09:47:45;;;;;;;3.03;1.87;;;;;;;10.70;100.00;99233.06;5075563;28;20037;-79
2024/01/02 09:50:17;;;;;;;3.05;1.85;;;;;;;10.72;100.00;99227.72;5077486;28;20125;-81
2024/01/02 09:53:03;;;;;;;1.58;1.40;;;;;;;10.74;100.00;99237.31;5071563;28;20056;-77
2024/01/02 09:55:40;;;;;;;1.75;1.50;;;;;;;10.76;100.00;99250.47;5074251;28;20081;-78
2024/01/02 09:58:12;;;;;;;2.03;1.60;;;;;;;10.75;100.00;99238.16;5064812;28;20036;-77
2024/01/02 10:00:50;;;;;;;2.15;1.30;;;;;;;10.79;100.00;99242.38;5065295;28;20075;-78
2024/01/02 10:03:30;;;;;;;1.60;1.50;;;;;;;10.78;100.00;99235.38;5074374;28;20101;-78
2024/01/02 10:06:17;;;;;;;2.40;1.37;;;;;;;10.77;100.00;99239.78;5074262;28;20383;-77
2024/01/02 10:08:46;;;;;;;1.25;1.15;;;;;;;10.75;100.00;99238.16;5074186;28;20025;-76
2024/01/02 10:11:33;;;;;;;1.15;1.05;;;;;;;10.75;100.00;99241.66;5064678;28;20179;-78
2024/01/02 10:14:27;;;;;;;1.60;1.45;;;;;;;10.73;100.00;99235.59;5056277;28;20025;-80
2024/01/02 10:17:20;;;;;;;1.70;1.40;;;;;;;10.65;100.00;99240.38;5073904;28;20036;-79
2024/01/02 10:20:06;;;;;;;2.15;1.30;;;;;;;10.60;100.00;99234.44;5073979;28;20119;-79
2024/01/02 10:22:46;;;;;;;2.03;1.45;;;;;;;10.57;100.00;99224.03;5072759;28;20028;-79
2024/01/02 10:25:18;;;;;;;1.10;0.98;;;;;;;10.59;100.00;99216.00;5072633;28;20041;-78
2024/01/02 10:28:19;;;;;;;1.20;1.02;;;;;;;10.70;100.00;99225.13;5059053;28;20029;-78
2024/01/02 10:30:52;;;;;;;1.13;1.02;;;;;;;10.63;100.00;99214.91;5070203;28;20039;-78
2024/01/02 10:33:22;;;;;;;2.95;1.27;;;;;;;10.63;100.00;99220.22;5073881;28;20032;-78
2024/01/02 10:35:54;;;;;;;1.88;0.90;;;;;;;10.61;100.00;99219.41;5074183;28;20036;-77
2024/01/02 10:38:23;;;;;;;1.83;1.25;;;;;;;10.65;100.00;99211.25;5064049;28;20106;-78
2024/01/02 10:41:04;;;;;;;0.90;0.90;;;;;;;10.66;100.00;99209.50;5063863;28;20054;-78
2024/01/02 10:43:48;;;;;;;2.38;1.13;;;;;;;10.64;100.00;99200.78;5073736;28;20094;-77
2024/01/02 10:46:33;;;;;;;0.95;0.95;;;;;;;10.66;100.00;99210.34;5073608;28;20047;-77
2024/01/02 10:49:14;;;;;;;1.02;1.00;;;;;;;10.72;100.00;99202.09;5067468;28;20086;-77
2024/01/02 10:51:41;;;;;;;1.23;1.13;;;;;;;10.68;100.00;99203.19;5073320;28;20094;-77
2024/01/02 10:54:37;;;;;;;3.92;3.00;;;;;;;10.69;100.00;99194.31;5071094;28;20080;-77
2024/01/02 10:57:07;;;;;;;2.55;1.45;;;;;;;10.67;100.00;99177.63;5042176;28;20072;-78
2024/01/02 10:59:35;;;;;;;1.83;1.30;;;;;;;10.66;100.00;99191.81;5072924;28;20045;-78
2024/01/02 11:02:27;;;;;;;2.38;1.42;;;;;;;10.68;100.00;99192.59;5071814;28;20099;-79
2024/01/02 11:05:10;;;;;;;2.40;1.27;;;;;;;10.70;100.00;99187.22;5041703;28;20049;-80
2024/01/02 11:07:40;;;;;;;3.95;1.20;;;;;;;10.62;100.00;99177.00;5066613;28;20036;-79
2024/01/02 11:10:12;;;;;;;1.45;1.35;;;;;;;10.63;100.00;99176.09;5050786;28;20039;-81
2024/01/02 11:12:50;;;;;;;1.65;1.20;;;;;;;10.61;100.00;99175.31;5066865;28;20033;-83
2024/01/02 11:15:18;;;;;;;1.13;0.95;;;;;;;10.65;100.00;99173.34;5070299;28;20047;-82
2024/01/02 11:17:44;;;;;;;1.80;1.33;;;;;;;10.60;100.00;99160.34;5052772;28;20074;-82
2024/01/02 11:20:14;;;;;;;1.30;1.13;;;;;;;10.58;100.00;99161.34;5038227;28;20044;-79
2024/01/02 11:22:45;;;;;;;1.13;0.98;;;;;;;10.57;100.00;99143.75;5071701;28;20032;-82
2024/01/02 11:25:14;;;;;;;19.92;11.90;;;;;;;10.48;100.00;99139.75;5051786;28;20395;-81
2024/01/02 11:27:42;;;;;;;1.00;1.00;;;;;;;10.46;100.00;99137.19;5062530;28;20017;-79
2024/01/02 11:30:10;;;;;;;1.20;0.95;;;;;;;10.49;100.00;99138.84;5054445;28;20120;-81